Flight Track Log - Related Links

Times and Time Zones

All times are in EST time to prevent confusion due to time zone crossing. See the N901TS flight status page for this flight to view local times or setup timezone preferences in your user account.

Time Position Orientation Groundspeed Altitude Reporting Facility
EST Latitude Longitude Course Direction KTS MPH feet Rate Location/Type
Wed 05:48:23 PM 41.4333 -90.5875 258° West 139 160 3,800  Level Kansas City Center
Wed 05:49:27 PM 41.4244 -90.6447 258° West 131 151 6,100 1,857 Climbing Chicago Center
Wed 05:50:29 PM 41.4006 -90.6836 231° Southwest 132 152 7,700 1,645 Climbing Chicago Center
Wed 05:51:31 PM 41.3758 -90.7253 232° Southwest 142 163 9,500 1,597 Climbing Chicago Center
Wed 05:52:33 PM 41.3472 -90.7694 229° Southwest 151 174 11,000 1,452 Climbing Chicago Center
Wed 05:53:35 PM 41.3158 -90.8214 231° Southwest 169 194 12,500 1,500 Climbing Chicago Center
Wed 05:54:37 PM 41.2769 -90.8825 230° Southwest 179 206 14,100 1,536 Climbing Chicago Center
Wed 05:55:40 PM 41.2431 -90.9361 230° Southwest 186 214 15,700 1,392 Climbing Chicago Center
Wed 05:56:42 PM 41.2081 -90.9894 229° Southwest 190 219 17,000 1,258 Climbing Chicago Center
Wed 05:57:44 PM 41.1728 -91.0447 230° Southwest 197 227 18,300 1,258 Climbing Chicago Center
Wed 05:58:46 PM 41.1381 -91.1006 230° Southwest 198 228 19,600 1,161 Climbing Chicago Center
Wed 05:59:48 PM 41.1017 -91.1581 230° Southwest 202 232 20,700 1,016 Climbing Chicago Center
Wed 06:00:50 PM 41.0553 -91.2294 229° Southwest 212 244 21,700 871 Climbing Chicago Center
Wed 06:01:52 PM 41.0139 -91.2944 230° Southwest 228 262 22,500 613 Climbing Chicago Center
Wed 06:03:56 PM 40.9269 -91.4314 230° Southwest 252 290 23,600 484 Climbing Chicago Center
Wed 06:04:58 PM 40.8675 -91.5225 229° Southwest 272 313 24,000 194 Climbing Chicago Center
Wed 06:06:00 PM 40.8150 -91.6028 229° Southwest 289 333 24,000  Level Chicago Center
Wed 06:07:03 PM 40.7603 -91.6867 229° Southwest 301 346 24,000  Level Chicago Center
Wed 06:08:05 PM 40.7053 -91.7711 229° Southwest 304 350 24,000  Level Chicago Center
Wed 06:09:07 PM 40.6508 -91.8528 229° Southwest 300 345 24,000  Level Chicago Center
Wed 06:10:06 PM 40.5953 -91.9364 229° Southwest 303 349 24,000  Level Kansas City Center
Wed 06:11:08 PM 40.5408 -92.0192 229° Southwest 302 348 24,000  Level Kansas City Center
Wed 06:12:10 PM 40.4744 -92.1192 229° Southwest 303 349 24,000  Level Kansas City Center
Wed 06:13:12 PM 40.4192 -92.2033 229° Southwest 304 350 24,000  Level Kansas City Center
Wed 06:14:17 PM 40.3631 -92.2897 230° Southwest 310 357 24,000  Level Chicago Center
Wed 06:15:19 PM 40.3064 -92.3750 229° Southwest 309 356 24,000  Level Chicago Center
Wed 06:16:21 PM 40.2489 -92.4617 229° Southwest 310 357 24,000  Level Chicago Center
Wed 06:17:23 PM 40.1797 -92.5653 229° Southwest 308 354 24,000  Level Chicago Center
Wed 06:18:22 PM 40.1278 -92.6411 228° Southwest 310 357 24,000  Level Kansas City Center
Wed 06:19:24 PM 40.0636 -92.7356 228° Southwest 310 357 24,000 -194 Level Kansas City Center
Wed 06:20:26 PM 40.0061 -92.8214 229° Southwest 316 364 23,600 -435 Descending Kansas City Center
Wed 06:21:28 PM 39.9464 -92.9103 229° Southwest 323 372 23,100 -672 Descending Kansas City Center
Wed 06:22:31 PM 39.8864 -92.9964 228° Southwest 323 372 22,200 -960 Descending Kansas City Center
Wed 06:23:33 PM 39.8292 -93.0825 229° Southwest 318 366 21,100 -1,065 Descending Kansas City Center
Wed 06:24:35 PM 39.7572 -93.1847 228° Southwest 321 369 20,000 -1,113 Descending Kansas City Center
Wed 06:25:37 PM 39.7006 -93.2675 228° Southwest 312 359 18,800 -1,306 Descending Kansas City Center
Wed 06:26:39 PM 39.6481 -93.3436 228° Southwest 293 337 17,300 -1,403 Descending Kansas City Center
Wed 06:27:41 PM 39.5986 -93.4158 228° Southwest 274 315 15,900 -1,306 Descending Kansas City Center
Wed 06:28:43 PM 39.5489 -93.4886 228° Southwest 273 314 14,600 -1,210 Descending Kansas City Center
Wed 06:29:45 PM 39.4981 -93.5617 228° Southwest 274 315 13,400 -1,306 Descending Kansas City Center
Wed 06:30:47 PM 39.4394 -93.6478 229° Southwest 267 307 11,900 -1,500 Descending Kansas City Center
Wed 06:31:49 PM 39.3917 -93.7169 228° Southwest 260 299 10,300 -968 Descending Kansas City Center
Wed 06:32:51 PM 39.3425 -93.7883 228° Southwest 244 281 9,900 -145 Descending Kansas City Center
Wed 06:33:53 PM 39.3000 -93.8486 228° Southwest 237 273 10,000 48 Climbing Kansas City Center
Wed 06:34:55 PM 39.2511 -93.9206 229° Southwest 239 275 10,000  Level Kansas City Center
Wed 06:35:57 PM 39.2089 -93.9808 228° Southwest 237 273 10,000  Level Kansas City Center
Wed 06:36:59 PM 39.1658 -94.0422 228° Southwest 240 276 10,000  Level Kansas City Center
Wed 06:38:01 PM 39.1158 -94.1128 228° Southwest 239 275 10,000  Level Kansas City Center
Wed 06:39:03 PM 39.0725 -94.1753 228° Southwest 242 278 10,000  Level Kansas City Center
Wed 06:40:05 PM 39.0214 -94.2472 228° Southwest 243 280 10,000  Level Kansas City Center
Wed 06:41:07 PM 38.9769 -94.3100 228° Southwest 247 284 10,000 -48 Level Kansas City Center
Wed 06:42:09 PM 38.9256 -94.3842 228° Southwest 248 285 9,900  Descending Kansas City Center
Wed 06:43:11 PM 38.8797 -94.4478 227° Southwest 251 289 10,000 -145 Climbing Kansas City Center
Wed 06:44:13 PM 38.8269 -94.5217 227° Southwest 252 290 9,600 -726 Descending Kansas City Center
Wed 06:45:15 PM 38.7886 -94.5947 236° Southwest 257 296 8,500 -1,500 Descending Kansas City Center
Wed 06:46:17 PM 38.7461 -94.6758 236° Southwest 247 284 6,500 -1,935 Descending Kansas City Center
Wed 06:47:19 PM 38.7114 -94.7414 236° Southwest 235 270 4,500 -1,742 Descending Kansas City Center
Wed 06:48:21 PM 38.6717 -94.7897 224° Southwest 208 239 2,900 -919 Descending Kansas City Center
Wed 06:49:23 PM 38.6267 -94.8339 217° Southwest 185 213 2,600 -290 Descending Kansas City Center
Wed 06:50:25 PM 38.5914 -94.8700 219° Southwest 171 197 2,300 -581 Descending Kansas City Center
Wed 06:51:27 PM 38.5597 -94.9008 217° Southwest 160 184 1,400 -871 Descending Kansas City Center

Login

Don't have an account? Register now (free) for customized features, flight alerts, and more!